Time;durP1;ratioP1;P1;durP2;ratioP2;P2;SDS_P1;SDS_P2;PMS_P1;PMS_P2;Temp;Humidity;BMP_temperature;BMP_pressure;BME280_temperature;BME280_humidity;BME280_pressure;Samples;Min_cycle;Max_cycle;Signal;HPM_P1;HPM_P2
2023/01/28 00:00:51;;;;;;;11.20;9.20;;;;;;;;;;4973564;28;20081;-87
2023/01/28 00:03:17;;;;;;;12.45;9.82;;;;;;;;;;4968950;28;20371;-87
2023/01/28 00:05:43;;;;;;;11.70;10.40;;;;;;;;;;4982492;28;20053;-88
2023/01/28 00:08:10;;;;;;;11.60;9.95;;;;;;;;;;4987868;28;20050;-87
2023/01/28 00:10:38;;;;;;;11.82;9.27;;;;;;;;;;4977896;28;20093;-87
2023/01/28 00:13:04;;;;;;;12.20;9.80;;;;;;;;;;4964540;28;20053;-88
2023/01/28 00:15:30;;;;;;;10.82;9.30;;;;;;;;;;4968955;28;20042;-87
2023/01/28 00:17:56;;;;;;;10.00;8.98;;;;;;;;;;4967235;28;20051;-87
2023/01/28 00:20:22;;;;;;;10.68;9.57;;;;;;;;;;4979359;28;20065;-88
2023/01/28 00:22:48;;;;;;;10.98;9.88;;;;;;;;;;4987753;28;20050;-87
2023/01/28 00:25:15;;;;;;;11.48;10.27;;;;;;;;;;4985268;28;20066;-87
2023/01/28 00:27:41;;;;;;;11.55;9.90;;;;;;;;;;4973481;28;20043;-88
2023/01/28 00:30:07;;;;;;;10.68;9.45;;;;;;;;;;4984364;28;20574;-87
2023/01/28 00:32:33;;;;;;;10.70;9.60;;;;;;;;;;4973011;28;20054;-87
2023/01/28 00:34:59;;;;;;;10.82;9.73;;;;;;;;;;4982334;28;20047;-87
2023/01/28 00:37:25;;;;;;;11.27;10.18;;;;;;;;;;4979710;28;20082;-87
2023/01/28 00:39:53;;;;;;;11.70;9.82;;;;;;;;;;4987830;28;20524;-87
2023/01/28 00:42:19;;;;;;;11.23;10.00;;;;;;;;;;4979334;28;20485;-87
2023/01/28 00:44:45;;;;;;;10.27;9.18;;;;;;;;;;4987672;28;20053;-86
2023/01/28 00:47:12;;;;;;;12.50;9.82;;;;;;;;;;4981623;28;20133;-87
2023/01/28 00:49:38;;;;;;;10.18;9.13;;;;;;;;;;4970864;28;20042;-87
2023/01/28 00:52:05;;;;;;;10.63;9.57;;;;;;;;;;4985605;28;20050;-87
2023/01/28 00:54:35;;;;;;;11.02;9.93;;;;;;;;;;4986672;28;20058;-87
2023/01/28 00:57:01;;;;;;;9.80;8.80;;;;;;;;;;4969725;28;20050;-87
2023/01/28 00:59:27;;;;;;;10.05;9.05;;;;;;;;;;4968453;28;20479;-87
2023/01/28 01:01:53;;;;;;;11.10;9.90;;;;;;;;;;4970538;28;20440;-87
2023/01/28 01:04:26;;;;;;;11.45;10.23;;;;;;;;;;4967018;28;20050;-87
2023/01/28 01:06:52;;;;;;;9.80;8.80;;;;;;;;;;4976382;28;20478;-87
2023/01/28 01:09:26;;;;;;;11.45;10.20;;;;;;;;;;4985752;28;20571;-87
2023/01/28 01:11:54;;;;;;;10.40;8.98;;;;;;;;;;4985775;28;20057;-88
2023/01/28 01:14:20;;;;;;;10.80;9.70;;;;;;;;;;4985846;28;20058;-87
2023/01/28 01:16:46;;;;;;;11.07;9.93;;;;;;;;;;4985656;28;20082;-87
2023/01/28 01:19:12;;;;;;;10.52;9.43;;;;;;;;;;4985811;28;20465;-87
2023/01/28 01:21:38;;;;;;;10.50;9.40;;;;;;;;;;4984211;28;20105;-87
2023/01/28 01:24:04;;;;;;;11.18;9.98;;;;;;;;;;4988065;28;20062;-87
2023/01/28 01:26:33;;;;;;;10.82;9.73;;;;;;;;;;4980759;28;20497;-87
2023/01/28 01:28:59;;;;;;;10.20;9.20;;;;;;;;;;4969488;28;20042;-87
2023/01/28 01:31:25;;;;;;;10.48;9.40;;;;;;;;;;4966518;28;20061;-87
2023/01/28 01:33:52;;;;;;;9.88;8.98;;;;;;;;;;4979867;28;20050;-87
2023/01/28 01:36:22;;;;;;;10.05;9.05;;;;;;;;;;4975938;28;20516;-87
2023/01/28 01:38:52;;;;;;;10.30;9.00;;;;;;;;;;4981110;28;20511;-87
2023/01/28 01:41:26;;;;;;;10.65;9.55;;;;;;;;;;4954154;28;20054;-87
2023/01/28 01:43:53;;;;;;;11.80;10.52;;;;;;;;;;4967855;28;20054;-87
2023/01/28 01:46:21;;;;;;;11.25;9.90;;;;;;;;;;4976392;28;20065;-87
2023/01/28 01:48:48;;;;;;;10.82;9.73;;;;;;;;;;4977916;28;20039;-87
2023/01/28 01:51:16;;;;;;;10.75;9.65;;;;;;;;;;4966505;28;20069;-87
2023/01/28 01:53:44;;;;;;;10.88;9.77;;;;;;;;;;4985582;28;20043;-87
2023/01/28 01:56:15;;;;;;;11.85;10.55;;;;;;;;;;4981916;28;20079;-87
2023/01/28 01:58:43;;;;;;;10.57;9.52;;;;;;;;;;4986387;28;20050;-87
2023/01/28 02:01:09;;;;;;;10.63;9.52;;;;;;;;;;4983994;28;20046;-87
2023/01/28 02:03:59;;;;;;;11.45;10.25;;;;;;;;;;4984033;28;20078;-87
2023/01/28 02:06:25;;;;;;;11.65;10.43;;;;;;;;;;4971138;28;20425;-87
2023/01/28 02:08:54;;;;;;;12.32;10.60;;;;;;;;;;4978238;28;20524;-88
2023/01/28 02:11:21;;;;;;;11.32;10.13;;;;;;;;;;4976853;28;20118;-87
2023/01/28 02:13:49;;;;;;;11.07;9.98;;;;;;;;;;4967548;28;20045;-88
2023/01/28 02:16:15;;;;;;;10.50;9.40;;;;;;;;;;4978277;28;20595;-87
2023/01/28 02:18:41;;;;;;;11.75;10.38;;;;;;;;;;4970523;28;20074;-87
2023/01/28 02:21:18;;;;;;;11.65;9.90;;;;;;;;;;4967011;28;20101;-87
2023/01/28 02:23:50;;;;;;;12.15;10.73;;;;;;;;;;4986292;28;20085;-87
2023/01/28 02:26:16;;;;;;;12.18;10.57;;;;;;;;;;4974657;28;20093;-87
2023/01/28 02:28:51;;;;;;;12.07;10.80;;;;;;;;;;4973908;28;20153;-87
2023/01/28 02:31:38;;;;;;;12.10;10.88;;;;;;;;;;4950323;28;20043;-87
2023/01/28 02:34:16;;;;;;;13.05;10.90;;;;;;;;;;4978898;28;20050;-86
2023/01/28 02:36:45;;;;;;;11.43;10.20;;;;;;;;;;4964012;28;20125;-87
2023/01/28 02:39:18;;;;;;;11.68;10.30;;;;;;;;;;4965173;28;20105;-88
2023/01/28 02:41:48;;;;;;;12.20;10.77;;;;;;;;;;4983578;28;20054;-87
2023/01/28 02:44:14;;;;;;;11.25;10.05;;;;;;;;;;4989377;28;20101;-88
2023/01/28 02:49:29;;;;;;;11.48;10.20;;;;;;;;;;4985662;28;20062;-87
2023/01/28 02:52:07;;;;;;;10.68;9.57;;;;;;;;;;4958531;28;20097;-87
2023/01/28 02:54:41;;;;;;;11.73;10.40;;;;;;;;;;4969505;28;20042;-87
2023/01/28 02:57:26;;;;;;;12.18;10.27;;;;;;;;;;4969311;28;20069;-88
2023/01/28 03:00:01;;;;;;;12.43;10.13;;;;;;;;;;4976169;28;20661;-87
2023/01/28 03:02:31;;;;;;;11.38;9.95;;;;;;;;;;4961890;28;20050;-87
2023/01/28 03:05:14;;;;;;;11.02;9.90;;;;;;;;;;4984008;28;20050;-87
2023/01/28 03:07:40;;;;;;;11.23;10.02;;;;;;;;;;4976987;28;20051;-87
2023/01/28 03:10:09;;;;;;;10.15;9.02;;;;;;;;;;4985272;28;20576;-87
2023/01/28 03:37:59;;;;;;;10.55;9.45;;;;;;;;;;4969588;28;20050;-87
2023/01/28 03:40:25;;;;;;;11.15;9.90;;;;;;;;;;4970694;28;20433;-88
2023/01/28 03:42:52;;;;;;;10.02;8.70;;;;;;;;;;4978323;28;20046;-87
2023/01/28 03:45:20;;;;;;;9.18;8.27;;;;;;;;;;4987451;28;20061;-87
2023/01/28 03:47:46;;;;;;;10.50;9.32;;;;;;;;;;4973623;28;20287;-87
2023/01/28 03:50:12;;;;;;;11.98;9.32;;;;;;;;;;4982446;28;20133;-87
2023/01/28 03:52:38;;;;;;;11.13;9.35;;;;;;;;;;4971484;28;20051;-87
2023/01/28 03:55:12;;;;;;;10.63;9.52;;;;;;;;;;4972913;28;20084;-87
2023/01/28 03:57:38;;;;;;;10.48;9.38;;;;;;;;;;4968990;28;20096;-87
2023/01/28 04:00:05;;;;;;;10.27;9.25;;;;;;;;;;4970344;28;20512;-87
2023/01/28 04:02:33;;;;;;;10.25;8.45;;;;;;;;;;4986934;28;20050;-87
2023/01/28 04:04:59;;;;;;;9.80;8.80;;;;;;;;;;4988985;28;20548;-87
2023/01/28 04:07:25;;;;;;;10.45;9.43;;;;;;;;;;4974129;28;20117;-87
2023/01/28 04:09:51;;;;;;;10.88;9.48;;;;;;;;;;4980590;28;20054;-88
2023/01/28 04:12:17;;;;;;;11.25;9.48;;;;;;;;;;4976234;28;20355;-87
2023/01/28 04:14:43;;;;;;;12.82;8.98;;;;;;;;;;4975062;28;20095;-87
2023/01/28 04:17:09;;;;;;;12.50;9.80;;;;;;;;;;4972742;28;20500;-87
2023/01/28 04:19:36;;;;;;;10.85;9.32;;;;;;;;;;4967646;28;20072;-87
2023/01/28 04:22:03;;;;;;;12.88;10.57;;;;;;;;;;4970902;28;20572;-87
2023/01/28 04:24:29;;;;;;;10.75;9.50;;;;;;;;;;4986576;28;20085;-88
2023/01/28 04:26:55;;;;;;;9.73;8.68;;;;;;;;;;4980778;28;20050;-87
2023/01/28 04:29:21;;;;;;;10.60;8.65;;;;;;;;;;4975687;28;20078;-87
2023/01/28 04:31:47;;;;;;;9.30;8.32;;;;;;;;;;4982780;28;20453;-87
2023/01/28 04:34:13;;;;;;;10.30;8.48;;;;;;;;;;4968330;28;20052;-87
2023/01/28 04:36:39;;;;;;;11.10;8.77;;;;;;;;;;4973358;28;20042;-87
2023/01/28 04:39:05;;;;;;;10.45;9.13;;;;;;;;;;4962089;28;20038;-87
2023/01/28 04:41:31;;;;;;;10.80;8.85;;;;;;;;;;4977199;28;20046;-88
2023/01/28 04:43:57;;;;;;;11.18;8.65;;;;;;;;;;4984428;28;20141;-88
2023/01/28 04:46:23;;;;;;;11.00;8.93;;;;;;;;;;4978365;28;20130;-85
2023/01/28 04:48:49;;;;;;;9.23;7.75;;;;;;;;;;4981015;28;20046;-87
2023/01/28 04:51:15;;;;;;;11.32;8.75;;;;;;;;;;4984484;28;20053;-87
2023/01/28 04:53:41;;;;;;;9.75;8.75;;;;;;;;;;4976187;28;20042;-88
2023/01/28 04:56:07;;;;;;;10.82;9.18;;;;;;;;;;4986563;28;20122;-88
2023/01/28 04:58:33;;;;;;;10.43;8.63;;;;;;;;;;4986808;28;20046;-87
2023/01/28 05:00:59;;;;;;;9.65;8.23;;;;;;;;;;4987581;28;20767;-87
2023/01/28 05:03:26;;;;;;;9.57;8.07;;;;;;;;;;4982346;28;20042;-87
2023/01/28 05:05:51;;;;;;;9.80;8.35;;;;;;;;;;4987444;28;20404;-87
2023/01/28 05:08:18;;;;;;;10.55;7.72;;;;;;;;;;4977395;28;20046;-87
2023/01/28 05:10:44;;;;;;;11.00;8.38;;;;;;;;;;4970241;28;20060;-86
2023/01/28 05:13:10;;;;;;;9.70;8.60;;;;;;;;;;4983112;28;20046;-87
2023/01/28 05:15:37;;;;;;;10.27;8.95;;;;;;;;;;4985468;28;20068;-87
2023/01/28 05:18:03;;;;;;;10.45;8.55;;;;;;;;;;4975262;28;20097;-86
2023/01/28 05:20:29;;;;;;;10.57;8.32;;;;;;;;;;4975486;28;20160;-88
2023/01/28 05:22:55;;;;;;;9.90;8.30;;;;;;;;;;4968092;28;20059;-87
2023/01/28 05:25:21;;;;;;;10.70;9.25;;;;;;;;;;4987204;28;20069;-87
2023/01/28 05:27:51;;;;;;;9.35;8.27;;;;;;;;;;4967566;28;20159;-87
2023/01/28 05:30:17;;;;;;;10.60;8.98;;;;;;;;;;4976030;28;20056;-87
2023/01/28 05:32:43;;;;;;;10.02;8.43;;;;;;;;;;4980703;28;20065;-87
2023/01/28 05:35:09;;;;;;;10.57;8.10;;;;;;;;;;4987497;28;20454;-88
2023/01/28 05:37:35;;;;;;;12.07;8.52;;;;;;;;;;4972330;28;20090;-86
2023/01/28 05:40:01;;;;;;;12.18;8.88;;;;;;;;;;4969072;28;20046;-87
2023/01/28 05:42:27;;;;;;;10.02;8.00;;;;;;;;;;4961157;28;20039;-87
2023/01/28 05:44:53;;;;;;;10.50;8.98;;;;;;;;;;4972482;28;20129;-87
2023/01/28 05:47:19;;;;;;;10.43;8.75;;;;;;;;;;4968723;28;20109;-86
2023/01/28 05:49:45;;;;;;;11.38;8.95;;;;;;;;;;4980705;28;20047;-87
2023/01/28 05:52:11;;;;;;;10.25;8.23;;;;;;;;;;4981038;28;20074;-87
2023/01/28 05:54:37;;;;;;;13.23;9.32;;;;;;;;;;4972912;28;20489;-87
2023/01/28 05:57:03;;;;;;;11.15;8.50;;;;;;;;;;4981289;28;20096;-87
2023/01/28 05:59:29;;;;;;;11.77;9.00;;;;;;;;;;4975732;28;20356;-87
2023/01/28 06:01:55;;;;;;;11.32;8.43;;;;;;;;;;4986681;28;20116;-87
2023/01/28 06:04:21;;;;;;;9.43;8.27;;;;;;;;;;4973596;28;20054;-87
2023/01/28 06:06:47;;;;;;;9.77;7.57;;;;;;;;;;4966822;28;20050;-88
2023/01/28 06:09:13;;;;;;;10.43;8.98;;;;;;;;;;4967989;28;20042;-87
2023/01/28 06:11:39;;;;;;;11.57;9.32;;;;;;;;;;4968118;28;20050;-87
2023/01/28 06:14:05;;;;;;;12.43;9.35;;;;;;;;;;4966806;28;20043;-87
2023/01/28 06:16:31;;;;;;;9.52;7.68;;;;;;;;;;4983641;28;20554;-87
2023/01/28 06:18:58;;;;;;;13.38;8.30;;;;;;;;;;4985054;28;20107;-87
2023/01/28 06:21:24;;;;;;;12.50;9.25;;;;;;;;;;4978291;28;20425;-88
2023/01/28 06:23:50;;;;;;;9.68;8.25;;;;;;;;;;4977327;28;20073;-87
2023/01/28 06:26:16;;;;;;;10.52;8.88;;;;;;;;;;4990559;28;20057;-87
2023/01/28 06:28:42;;;;;;;11.27;9.15;;;;;;;;;;4985992;28;20046;-87
2023/01/28 06:31:08;;;;;;;11.52;9.57;;;;;;;;;;4960774;28;20046;-88
2023/01/28 06:33:34;;;;;;;10.55;8.90;;;;;;;;;;4987124;28;20127;-87
2023/01/28 06:36:07;;;;;;;11.38;8.63;;;;;;;;;;4989955;28;20046;-85
2023/01/28 06:38:36;;;;;;;10.88;8.60;;;;;;;;;;4989530;28;20070;-88
2023/01/28 06:41:02;;;;;;;10.35;9.07;;;;;;;;;;4986503;28;20039;-87
2023/01/28 06:43:29;;;;;;;11.45;9.32;;;;;;;;;;4953661;28;20034;-88
2023/01/28 06:46:00;;;;;;;11.23;9.05;;;;;;;;;;4970531;28;20133;-88
2023/01/28 06:48:27;;;;;;;9.80;8.40;;;;;;;;;;4976614;28;20121;-88
2023/01/28 06:50:53;;;;;;;10.20;8.73;;;;;;;;;;4987603;28;20130;-87
2023/01/28 06:53:28;;;;;;;9.23;8.10;;;;;;;;;;4989808;28;20057;-88
2023/01/28 06:55:54;;;;;;;12.32;8.57;;;;;;;;;;4973459;28;20042;-87
2023/01/28 06:58:23;;;;;;;10.05;8.88;;;;;;;;;;4989908;28;20445;-88
2023/01/28 07:00:55;;;;;;;10.20;8.95;;;;;;;;;;4989500;28;20039;-88
2023/01/28 07:03:21;;;;;;;9.95;8.48;;;;;;;;;;4976562;28;20034;-87
2023/01/28 07:05:49;;;;;;;10.05;8.68;;;;;;;;;;4966482;28;20058;-88
2023/01/28 07:08:18;;;;;;;13.85;9.10;;;;;;;;;;4969296;28;20133;-87
2023/01/28 07:10:44;;;;;;;11.00;8.35;;;;;;;;;;4985362;28;20069;-88
2023/01/28 07:13:10;;;;;;;11.15;9.10;;;;;;;;;;4988842;28;20468;-87
2023/01/28 07:15:42;;;;;;;14.13;9.38;;;;;;;;;;4986856;28;20039;-85
2023/01/28 07:18:11;;;;;;;13.35;10.93;;;;;;;;;;4986864;28;20050;-85
2023/01/28 07:20:37;;;;;;;14.52;9.73;;;;;;;;;;4988899;28;20053;-86
2023/01/28 07:23:03;;;;;;;12.98;9.98;;;;;;;;;;4989649;28;20046;-85
2023/01/28 07:25:32;;;;;;;12.10;10.18;;;;;;;;;;4986584;28;20065;-86
2023/01/28 07:28:01;;;;;;;12.93;9.88;;;;;;;;;;4965313;28;20057;-86
2023/01/28 07:30:27;;;;;;;14.88;11.48;;;;;;;;;;4978422;28;20042;-86
2023/01/28 07:33:00;;;;;;;27.08;19.40;;;;;;;;;;4973746;28;20046;-88
2023/01/28 07:35:26;;;;;;;14.90;12.23;;;;;;;;;;4989028;28;20056;-85
2023/01/28 07:37:57;;;;;;;12.18;10.18;;;;;;;;;;4988840;28;20048;-85
2023/01/28 07:40:23;;;;;;;12.77;10.80;;;;;;;;;;4989910;28;20049;-86
2023/01/28 07:42:49;;;;;;;12.50;10.15;;;;;;;;;;4986061;28;20034;-85
2023/01/28 07:45:16;;;;;;;13.73;10.50;;;;;;;;;;4968793;28;20073;-85
2023/01/28 07:47:42;;;;;;;13.48;10.75;;;;;;;;;;4970451;28;20058;-86
2023/01/28 07:50:09;;;;;;;14.75;11.13;;;;;;;;;;4973302;28;20461;-86
2023/01/28 07:52:43;;;;;;;16.20;11.35;;;;;;;;;;4990381;28;20054;-86
2023/01/28 07:55:15;;;;;;;15.52;13.25;;;;;;;;;;4988516;28;20137;-85
2023/01/28 07:57:54;;;;;;;17.30;12.88;;;;;;;;;;4988135;28;20053;-87
2023/01/28 08:00:21;;;;;;;16.73;12.20;;;;;;;;;;4981305;28;20043;-86
2023/01/28 08:03:01;;;;;;;14.63;11.10;;;;;;;;;;4953803;28;20433;-87
2023/01/28 08:05:45;;;;;;;13.80;10.30;;;;;;;;;;4969919;28;20050;-87
2023/01/28 08:08:11;;;;;;;12.70;9.95;;;;;;;;;;4953787;28;20062;-87
2023/01/28 08:10:50;;;;;;;;;;;;;;;;;;;;;
2023/01/28 08:13:33;;;;;;;12.80;9.68;;;;;;;;;;4969388;28;20176;-88
2023/01/28 08:15:59;;;;;;;13.05;9.98;;;;;;;;;;4953055;28;20129;-87
2023/01/28 08:18:28;;;;;;;15.80;10.85;;;;;;;;;;4953020;28;20051;-88
2023/01/28 08:20:55;;;;;;;14.63;10.35;;;;;;;;;;4953262;28;20053;-88
2023/01/28 08:23:21;;;;;;;11.95;9.85;;;;;;;;;;4968691;28;20055;-88
2023/01/28 08:25:48;;;;;;;13.40;10.30;;;;;;;;;;4953425;28;20506;-86
2023/01/28 08:28:15;;;;;;;15.50;10.63;;;;;;;;;;4968566;28;20050;-86
2023/01/28 08:30:44;;;;;;;12.55;10.05;;;;;;;;;;4972265;28;20035;-86
2023/01/28 08:33:13;;;;;;;14.82;10.02;;;;;;;;;;4968055;28;20078;-87
2023/01/28 08:35:42;;;;;;;14.32;10.40;;;;;;;;;;4968013;28;20058;-86
2023/01/28 08:38:08;;;;;;;14.25;10.27;;;;;;;;;;4967530;28;20061;-86
2023/01/28 08:40:34;;;;;;;13.35;9.65;;;;;;;;;;4967927;28;20050;-87
2023/01/28 08:43:01;;;;;;;12.18;9.25;;;;;;;;;;4968172;28;20042;-86
2023/01/28 08:45:28;;;;;;;12.95;8.95;;;;;;;;;;4967629;28;20051;-86
2023/01/28 08:47:55;;;;;;;13.00;9.73;;;;;;;;;;4969495;28;20076;-85
2023/01/28 08:50:21;;;;;;;12.45;9.32;;;;;;;;;;4967896;28;20046;-86
2023/01/28 08:52:48;;;;;;;13.23;9.35;;;;;;;;;;4969509;28;20536;-85
2023/01/28 08:55:20;;;;;;;13.25;9.85;;;;;;;;;;4969194;28;20406;-89
2023/01/28 08:57:46;;;;;;;13.70;9.43;;;;;;;;;;4970270;28;20051;-88
2023/01/28 09:00:15;;;;;;;12.45;9.35;;;;;;;;;;4968366;28;20517;-85
2023/01/28 09:02:41;;;;;;;17.77;9.35;;;;;;;;;;4969289;28;20062;-85
2023/01/28 09:05:07;;;;;;;14.35;9.48;;;;;;;;;;4968418;28;20047;-85
2023/01/28 09:07:37;;;;;;;13.48;9.38;;;1.50;99.90;;;;;;4952239;28;20047;-88
2023/01/28 09:10:04;;;;;;;11.40;8.63;;;1.10;99.90;;;;;;4968850;28;20051;-87
2023/01/28 09:12:30;;;;;;;11.35;8.75;;;1.50;99.90;;;;;;4968001;28;20047;-87
2023/01/28 09:14:56;;;;;;;11.70;8.82;;;2.60;99.90;;;;;;4968427;28;20047;-87
2023/01/28 09:17:22;;;;;;;12.00;8.35;;;1.60;99.90;;;;;;4967765;28;20077;-87
2023/01/28 09:19:48;;;;;;;11.70;8.60;;;1.60;99.90;;;;;;4952046;28;20042;-87
2023/01/28 09:22:14;;;;;;;10.60;8.15;;;2.00;99.90;;;;;;4952024;28;20891;-85
2023/01/28 09:24:44;;;;;;;10.68;7.97;;;2.40;99.90;;;;;;4968553;28;20059;-85
2023/01/28 09:27:09;;;;;;;12.82;8.43;;;3.10;99.90;;;;;;4967814;28;20050;-86
2023/01/28 09:29:36;;;;;;;11.77;9.02;;;2.10;99.90;;;;;;4967968;28;20057;-88
2023/01/28 09:32:02;;;;;;;10.82;8.65;;;2.00;99.90;;;;;;4982155;28;20054;-88
2023/01/28 09:34:28;;;;;;;10.80;7.55;;;2.30;99.90;;;;;;4963373;28;20097;-86
2023/01/28 09:36:54;;;;;;;9.95;8.13;;;2.30;99.90;;;;;;4961976;28;20047;-86
2023/01/28 09:39:19;;;;;;;9.38;7.22;;;3.20;99.90;;;;;;4964438;28;20421;-86
2023/01/28 09:42:22;;;;;;;9.25;7.20;;;3.10;99.90;;;;;;4964489;28;20433;-85
2023/01/28 09:45:07;;;;;;;10.43;7.72;;;2.60;99.90;;;;;;4969368;28;20043;-83
2023/01/28 09:47:40;;;;;;;8.52;7.38;;;1.20;99.90;;;;;;4976135;28;20802;-86
2023/01/28 09:50:19;;;;;;;11.48;7.55;;;3.30;99.90;;;;;;4989682;28;20109;-85
2023/01/28 09:52:46;;;;;;;8.93;7.25;;;2.40;99.90;;;;;;4974405;28;20054;-87
2023/01/28 09:55:21;;;;;;;9.05;7.18;;;1.90;99.90;;;;;;4990159;28;20046;-86
2023/01/28 09:57:54;;;;;;;8.18;6.93;;;;;;;;;;4988100;28;20046;-87
2023/01/28 10:00:28;;;;;;;9.85;7.68;;;;;;;;;;4990516;28;20054;-86
2023/01/28 10:03:04;;;;;;;9.35;7.07;;;;;;;;;;4990776;28;20065;-87
2023/01/28 10:05:31;;;;;;;9.00;6.97;;;;;;;;;;4981348;28;20047;-87
2023/01/28 10:08:18;;;;;;;10.15;7.88;;;;;;;;;;4957470;28;20051;-87
2023/01/28 10:10:50;;;;;;;11.63;8.82;;;;;;;;;;4970672;28;20493;-86
2023/01/28 10:13:38;;;;;;;12.15;10.10;;;;;;;;;;4971266;28;20039;-85
2023/01/28 10:16:26;;;;;;;9.80;7.70;;;;;;;;;;4971928;28;20549;-87
2023/01/28 10:19:00;;;;;;;8.98;7.50;;;;;;;;;;4969408;28;20059;-85
2023/01/28 10:21:33;;;;;;;9.30;7.90;;;;;;;;;;4967995;28;20118;-84
2023/01/28 10:24:02;;;;;;;;;;;;;;;;;;4952069;29;20055;-84
2023/01/28 10:26:36;;;;;;;8.13;6.60;;;;;;;;;;4984421;28;19922;-85
2023/01/28 10:29:05;;;;;;;9.68;7.35;;;;;;;;;;4974578;28;20046;-85
2023/01/28 10:31:35;;;;;;;8.30;7.32;;;;;;;;;;4990542;28;20057;-85
2023/01/28 10:34:03;;;;;;;7.85;6.43;;;;;;;;;;4953829;28;20047;-86
2023/01/28 10:36:32;;;;;;;8.40;7.00;;;;;;;;;;4952446;29;20047;-86
2023/01/28 10:38:59;;;;;;;13.93;7.88;;;;;;;;;;4955134;28;20081;-85
2023/01/28 10:41:26;;;;;;;9.13;7.75;;;;;;;;;;4987425;28;20049;-84
2023/01/28 10:43:55;;;;;;;9.65;7.70;;;;;;;;;;4970814;28;20401;-85
2023/01/28 10:46:26;;;;;;;12.25;8.73;;;;;;;;;;4970070;28;20505;-85
2023/01/28 10:49:24;;;;;;;26.23;13.55;;;;;;;;;;4971166;28;20059;-85
2023/01/28 10:51:53;;;;;;;7.97;6.85;;;;;;;;;;4954796;28;20153;-86
2023/01/28 10:54:25;;;;;;;7.75;6.60;;;;;;;;;;4970058;28;20527;-84
2023/01/28 10:57:02;;;;;;;8.27;7.03;;;;;;;;;;4968520;28;20050;-83
2023/01/28 10:59:33;;;;;;;6.63;6.03;;;;;;;;;;4969497;28;20130;-84
2023/01/28 11:02:04;;;;;;;8.35;6.50;;;;;;;;;;4985084;28;20057;-84
2023/01/28 11:04:36;;;;;;;7.65;6.85;;;;;;;;;;4980504;28;20050;-84
2023/01/28 11:07:19;;;;;;;7.55;6.30;;;;;;;;;;4977890;28;20046;-85
2023/01/28 11:09:52;;;;;;;7.80;5.80;;;;;;;;;;4976002;28;20039;-83
2023/01/28 11:12:26;;;;;;;9.70;6.25;;;;;;;;;;4970177;28;20119;-85
2023/01/28 11:14:56;;;;;;;7.97;6.50;;;;;;;;;;4968989;28;20047;-85
2023/01/28 11:17:24;;;;;;;7.72;6.65;;;;;;;;;;4961488;28;20043;-84
2023/01/28 11:19:53;;;;;;;8.20;6.38;;;;;;;;;;4968723;28;20051;-84
2023/01/28 11:22:42;;;;;;;7.75;5.97;;;;;;;;;;4959769;28;20038;-86
2023/01/28 11:25:27;;;;;;;10.57;7.75;;;;;;;;;;4984358;28;20043;-84
2023/01/28 11:27:53;;;;;;;9.75;8.02;;;;;;;;;;4987647;28;20137;-83
2023/01/28 11:30:32;;;;;;;13.05;9.13;;;;;;;;;;4989166;28;20053;-84
2023/01/28 11:33:07;;;;;;;8.30;6.95;;;;;;;;;;4988035;28;20401;-84
2023/01/28 11:35:36;;;;;;;9.40;7.30;;;;;;;;;;4969079;28;20062;-84
2023/01/28 11:38:02;;;;;;;8.65;7.35;;;;;;;;;;4973995;28;20062;-84
2023/01/28 11:40:29;;;;;;;10.57;7.93;;;;;;;;;;4988846;28;20160;-84
2023/01/28 11:42:59;;;;;;;8.90;7.35;;;;;;;;;;4963519;28;20077;-85
2023/01/28 11:45:31;;;;;;;10.63;7.93;;;;;;;;;;4977671;28;20154;-84
2023/01/28 11:47:57;;;;;;;10.60;7.43;;;;;;;;;;4965444;28;20085;-82
2023/01/28 11:50:33;;;;;;;9.43;7.28;;;;;;;;;;4967304;28;20081;-84
2023/01/28 11:53:17;;;;;;;9.85;7.53;;;;;;;;;;4967134;28;20068;-85
2023/01/28 11:55:53;;;;;;;8.32;7.10;;;;;;;;;;4966345;28;20047;-85
2023/01/28 11:58:23;;;;;;;7.75;6.55;;;;;;;;;;4965212;28;20130;-85
2023/01/28 12:00:48;;;;;;;10.05;8.05;;;;;;;;;;4965895;28;20047;-85
2023/01/28 12:03:31;;;;;;;10.63;7.65;;;;;;;;;;4971765;28;20050;-86
2023/01/28 12:06:15;;;;;;;8.35;7.07;;;;;;;;;;4988384;28;20077;-85
2023/01/28 12:09:07;;;;;;;8.93;7.25;;;5.60;99.90;;;;;;4988009;28;20046;-85
2023/01/28 12:14:58;;;;;;;9.77;7.40;;;4.70;99.90;;;;;;4949026;29;20055;-86
2023/01/28 12:18:01;;;;;;;6.90;6.00;;;5.40;99.90;;;;;;4898524;28;20063;-85
2023/01/28 12:20:37;;;;;;;7.50;5.85;;;5.40;99.90;;;;;;4977329;28;20085;-85
2023/01/28 12:23:30;;;;;;;9.45;6.70;;;5.50;99.90;;;;;;4971750;28;20587;-85
2023/01/28 12:26:15;;;;;;;8.30;6.47;;;5.50;99.90;;;;;;4972626;28;20770;-85
2023/01/28 12:28:55;;;;;;;8.68;6.97;;;5.50;99.90;;;;;;4987961;28;20058;-85
2023/01/28 12:31:40;;;;;;;8.80;6.63;;;5.50;99.90;;;;;;4987650;28;20519;-85
2023/01/28 12:34:40;;;;;;;8.75;7.40;;;5.60;99.90;;;;;;4986755;28;20709;-84
2023/01/28 12:37:48;;;;;;;9.25;7.18;;;6.40;99.90;;;;;;4931480;29;20459;-84
2023/01/28 12:40:52;;;;;;;9.68;6.65;;;5.50;99.90;;;;;;4947251;28;20067;-85
2023/01/28 12:43:37;;;;;;;9.05;6.28;;;5.50;99.90;;;;;;4987934;28;20054;-85
2023/01/28 12:46:20;;;;;;;9.02;6.15;;;5.40;99.90;;;;;;4987517;28;20039;-85
2023/01/28 12:49:09;;;;;;;8.10;6.20;;;5.00;99.90;;;;;;4959048;28;20394;-85
2023/01/28 12:51:50;;;;;;;9.48;6.47;;;5.30;99.90;;;;;;4951874;28;20047;-84
2023/01/28 12:55:06;;;;;;;7.95;6.40;;;5.20;99.90;;;;;;4966693;28;20181;-84
2023/01/28 12:57:34;;;;;;;11.30;7.07;;;5.10;99.90;;;;;;4926878;28;20055;-85
2023/01/28 13:00:29;;;;;;;10.13;7.13;;;4.90;99.90;;;;;;4949122;28;20513;-85
2023/01/28 13:03:16;;;;;;;9.10;7.15;;;4.90;99.90;;;;;;4954506;28;20403;-84
2023/01/28 13:06:15;;;;;;;7.95;6.43;;;4.90;99.90;;;;;;4978529;28;20057;-85
2023/01/28 13:12:42;;;;;;;;;;;;;;;;;;;;;
2023/01/28 13:15:22;;;;;;;12.55;7.85;;;5.70;99.90;;;;;;4987214;28;20057;-85
2023/01/28 13:18:17;;;;;;;14.77;8.55;;;5.10;99.90;;;;;;4987675;28;20102;-85
2023/01/28 13:20:49;;;;;;;12.15;8.90;;;5.30;99.90;;;;;;4984442;28;20039;-85
2023/01/28 13:23:23;;;;;;;14.27;9.68;;;5.60;99.90;;;;;;4967621;28;20137;-85
2023/01/28 13:25:53;;;;;;;14.77;9.40;;;5.30;99.90;;;;;;4951652;28;20133;-85
2023/01/28 13:28:31;;;;;;;14.75;9.40;;;5.30;99.90;;;;;;4969330;28;20386;-84
2023/01/28 13:31:05;;;;;;;14.70;8.73;;;6.20;99.90;;;;;;4969387;28;20125;-84
2023/01/28 13:33:34;;;;;;;13.15;9.00;;;5.30;99.90;;;;;;4951241;28;20082;-85
2023/01/28 13:36:17;;;;;;;14.75;9.90;;;5.30;99.90;;;;;;4983983;28;20382;-85
2023/01/28 13:38:46;;;;;;;13.82;9.00;;;5.30;99.90;;;;;;4988507;28;20046;-85
2023/01/28 13:41:11;;;;;;;12.43;8.73;;;5.30;99.90;;;;;;4986566;28;20074;-85
2023/01/28 13:43:40;;;;;;;23.17;16.83;;;5.30;99.90;;;;;;4988274;28;20089;-84
2023/01/28 13:46:12;;;;;;;13.63;9.60;;;5.30;99.90;;;;;;4986402;28;20691;-85
2023/01/28 13:48:57;;;;;;;13.00;8.25;;;5.40;99.90;;;;;;4987097;28;20221;-85
2023/01/28 13:51:37;;;;;;;13.43;8.93;;;5.40;99.90;;;;;;4980017;28;20039;-84
2023/01/28 13:54:16;;;;;;;13.57;9.20;;;5.40;99.90;;;;;;4968976;28;20485;-83
2023/01/28 13:57:00;;;;;;;12.27;7.90;;;5.40;99.90;;;;;;4968560;28;20089;-83
2023/01/28 14:00:06;;;;;;;10.60;7.65;;;5.40;99.90;;;;;;4968625;28;20038;-83
2023/01/28 14:03:02;;;;;;;9.23;6.60;;;5.30;99.90;;;;;;4967668;28;20061;-81
2023/01/28 14:05:52;;;;;;;11.27;7.00;;;5.30;99.90;;;;;;4966593;28;20109;-81
2023/01/28 14:08:41;;;;;;;8.57;6.47;;;5.20;99.90;;;;;;4968956;28;20133;-82
2023/01/28 14:11:31;;;;;;;9.35;6.78;;;5.20;99.90;;;;;;4968762;28;20050;-83
2023/01/28 14:14:33;;;;;;;8.98;6.40;;;5.20;99.90;;;;;;4966969;28;20078;-85
2023/01/28 14:17:29;;;;;;;11.57;7.77;;;5.20;99.90;;;;;;4967302;28;20077;-82
2023/01/28 14:19:57;;;;;;;12.57;8.07;;;4.30;99.90;;;;;;4966092;28;20130;-83
2023/01/28 14:22:22;;;;;;;13.20;7.88;;;5.20;99.90;;;;;;4950921;28;20053;-85
2023/01/28 14:24:48;;;;;;;11.43;8.23;;;5.20;99.90;;;;;;4967790;28;20372;-83
2023/01/28 14:31:11;;;;;;;12.57;8.05;;;5.30;99.90;;;;;;4967789;28;20382;-82
2023/01/28 14:34:31;;;;;;;14.02;7.68;;;5.70;99.90;;;;;;4985072;28;20058;-82
2023/01/28 14:37:39;;;;;;;11.88;7.97;;;5.60;99.90;;;;;;4951620;28;20166;-82
2023/01/28 14:47:31;;;;;;;14.68;8.10;;;;;;;;;;4822837;29;20581;-84
2023/01/28 14:50:25;;;;;;;13.82;8.40;;;;;;;;;;4948656;28;20387;-83
2023/01/28 15:00:42;;;;;;;11.23;8.10;;;;;;;;;;4933284;29;20054;-84
2023/01/28 15:03:27;;;;;;;15.90;9.52;;;;;;;;;;4946052;28;20061;-84
2023/01/28 15:06:06;;;;;;;13.25;8.95;;;;;;;;;;4989696;28;20060;-85
2023/01/28 15:08:32;;;;;;;18.83;10.65;;;;;;;;;;4973673;28;20039;-84
2023/01/28 15:11:00;;;;;;;17.92;11.32;;;;;;;;;;4970040;28;20054;-84
2023/01/28 15:13:28;;;;;;;19.98;11.40;;;;;;;;;;4969528;28;20078;-84
2023/01/28 15:15:59;;;;;;;16.33;11.40;;;;;;;;;;4970331;28;20461;-84
2023/01/28 15:18:51;;;;;;;21.48;12.68;;;;;;;;;;4971276;28;20425;-84
2023/01/28 15:21:21;;;;;;;19.70;11.47;;;;;;;;;;4970892;28;20046;-84
2023/01/28 15:23:48;;;;;;;21.52;12.07;;;;;;;;;;4972984;28;20058;-84
2023/01/28 15:26:34;;;;;;;19.33;11.70;;;;;;;;;;4988883;28;20072;-84
2023/01/28 15:29:00;;;;;;;20.00;12.98;;;;;;;;;;4983832;28;20141;-83